sensor_id;sensor_type;location;lat;lon;timestamp;pressure;altitude;pressure_sealevel;temperature;humidity
28181;BME280;15464;50.988;10.318;2023-04-21T00:01:17;98854.91;;;7.61;100.00
28181;BME280;15464;50.988;10.318;2023-04-21T00:03:45;98855.13;;;7.58;100.00
28181;BME280;15464;50.988;10.318;2023-04-21T00:06:13;98858.22;;;7.52;100.00
28181;BME280;15464;50.988;10.318;2023-04-21T00:08:48;98853.91;;;7.51;100.00
28181;BME280;15464;50.988;10.318;2023-04-21T00:11:15;98845.59;;;7.45;100.00
28181;BME280;15464;50.988;10.318;2023-04-21T00:13:42;98849.19;;;7.44;100.00
28181;BME280;15464;50.988;10.318;2023-04-21T00:16:08;98852.56;;;7.46;100.00
28181;BME280;15464;50.988;10.318;2023-04-21T00:18:36;98848.13;;;7.46;100.00
28181;BME280;15464;50.988;10.318;2023-04-21T00:21:02;98840.31;;;7.45;100.00
28181;BME280;15464;50.988;10.318;2023-04-21T00:23:29;98842.44;;;7.40;100.00
28181;BME280;15464;50.988;10.318;2023-04-21T00:25:56;98844.16;;;7.41;100.00
28181;BME280;15464;50.988;10.318;2023-04-21T00:28:22;98845.00;;;7.41;100.00
28181;BME280;15464;50.988;10.318;2023-04-21T00:30:49;98847.97;;;7.37;100.00
28181;BME280;15464;50.988;10.318;2023-04-21T00:33:16;98844.34;;;7.38;100.00
28181;BME280;15464;50.988;10.318;2023-04-21T00:35:42;98839.31;;;7.35;100.00
28181;BME280;15464;50.988;10.318;2023-04-21T00:38:09;98838.59;;;7.33;100.00
28181;BME280;15464;50.988;10.318;2023-04-21T00:40:36;98842.53;;;7.27;100.00
28181;BME280;15464;50.988;10.318;2023-04-21T00:43:06;98839.97;;;7.25;100.00
28181;BME280;15464;50.988;10.318;2023-04-21T00:45:33;98847.91;;;7.25;100.00
28181;BME280;15464;50.988;10.318;2023-04-21T00:48:00;98844.88;;;7.19;100.00
28181;BME280;15464;50.988;10.318;2023-04-21T00:50:27;98842.47;;;7.16;100.00
28181;BME280;15464;50.988;10.318;2023-04-21T00:52:54;98847.00;;;7.14;100.00
28181;BME280;15464;50.988;10.318;2023-04-21T00:55:21;98848.28;;;7.08;100.00
28181;BME280;15464;50.988;10.318;2023-04-21T00:57:50;98847.78;;;7.03;100.00
28181;BME280;15464;50.988;10.318;2023-04-21T01:00:17;98838.88;;;6.93;100.00
28181;BME280;15464;50.988;10.318;2023-04-21T01:02:44;98841.22;;;6.85;100.00
28181;BME280;15464;50.988;10.318;2023-04-21T01:05:11;98841.41;;;6.82;100.00
28181;BME280;15464;50.988;10.318;2023-04-21T01:07:38;98834.47;;;6.81;100.00
28181;BME280;15464;50.988;10.318;2023-04-21T01:10:06;98842.06;;;6.85;100.00
28181;BME280;15464;50.988;10.318;2023-04-21T01:12:41;98839.31;;;6.87;100.00
28181;BME280;15464;50.988;10.318;2023-04-21T01:15:08;98837.72;;;6.84;100.00
28181;BME280;15464;50.988;10.318;2023-04-21T01:17:35;98837.63;;;6.86;100.00
28181;BME280;15464;50.988;10.318;2023-04-21T01:20:07;98835.59;;;6.89;100.00
28181;BME280;15464;50.988;10.318;2023-04-21T01:22:36;98835.19;;;6.83;100.00
28181;BME280;15464;50.988;10.318;2023-04-21T01:25:03;98836.38;;;6.79;100.00
28181;BME280;15464;50.988;10.318;2023-04-21T01:27:31;98837.84;;;6.83;100.00
28181;BME280;15464;50.988;10.318;2023-04-21T01:29:57;98835.19;;;6.83;100.00
28181;BME280;15464;50.988;10.318;2023-04-21T01:32:27;98838.78;;;6.82;100.00
28181;BME280;15464;50.988;10.318;2023-04-21T01:34:58;98830.47;;;6.75;100.00
28181;BME280;15464;50.988;10.318;2023-04-21T01:37:29;98836.81;;;6.73;100.00
28181;BME280;15464;50.988;10.318;2023-04-21T01:39:59;98834.53;;;6.68;100.00
28181;BME280;15464;50.988;10.318;2023-04-21T01:42:27;98838.94;;;6.68;100.00
28181;BME280;15464;50.988;10.318;2023-04-21T01:44:55;98830.91;;;6.69;100.00
28181;BME280;15464;50.988;10.318;2023-04-21T01:47:23;98840.94;;;6.64;100.00
28181;BME280;15464;50.988;10.318;2023-04-21T01:49:51;98835.06;;;6.61;100.00
28181;BME280;15464;50.988;10.318;2023-04-21T01:52:18;98832.19;;;6.64;100.00
28181;BME280;15464;50.988;10.318;2023-04-21T01:54:45;98828.09;;;6.60;100.00
28181;BME280;15464;50.988;10.318;2023-04-21T01:57:11;98834.75;;;6.53;100.00
28181;BME280;15464;50.988;10.318;2023-04-21T01:59:38;98839.06;;;6.54;100.00
28181;BME280;15464;50.988;10.318;2023-04-21T02:02:05;98837.63;;;6.50;100.00
28181;BME280;15464;50.988;10.318;2023-04-21T02:04:32;98844.88;;;6.46;100.00
28181;BME280;15464;50.988;10.318;2023-04-21T02:06:59;98844.25;;;6.42;100.00
28181;BME280;15464;50.988;10.318;2023-04-21T02:09:26;98848.56;;;6.43;100.00
28181;BME280;15464;50.988;10.318;2023-04-21T02:11:56;98838.88;;;6.44;100.00
28181;BME280;15464;50.988;10.318;2023-04-21T02:14:24;98845.31;;;6.40;100.00
28181;BME280;15464;50.988;10.318;2023-04-21T02:16:51;98844.69;;;6.36;100.00
28181;BME280;15464;50.988;10.318;2023-04-21T02:19:18;98837.66;;;6.24;100.00
28181;BME280;15464;50.988;10.318;2023-04-21T02:21:45;98833.75;;;6.30;100.00
28181;BME280;15464;50.988;10.318;2023-04-21T02:24:12;98833.09;;;6.26;100.00
28181;BME280;15464;50.988;10.318;2023-04-21T02:26:39;98828.47;;;6.30;100.00
28181;BME280;15464;50.988;10.318;2023-04-21T02:29:06;98830.16;;;6.31;100.00
28181;BME280;15464;50.988;10.318;2023-04-21T02:31:32;98834.59;;;6.30;100.00
28181;BME280;15464;50.988;10.318;2023-04-21T02:34:11;98827.81;;;6.26;100.00
28181;BME280;15464;50.988;10.318;2023-04-21T02:36:38;98836.25;;;6.31;100.00
28181;BME280;15464;50.988;10.318;2023-04-21T02:39:05;98837.94;;;6.32;100.00
28181;BME280;15464;50.988;10.318;2023-04-21T02:41:31;98839.63;;;6.33;100.00
28181;BME280;15464;50.988;10.318;2023-04-21T02:43:58;98836.38;;;6.30;100.00
28181;BME280;15464;50.988;10.318;2023-04-21T02:46:25;98845.53;;;6.24;100.00
28181;BME280;15464;50.988;10.318;2023-04-21T02:48:52;98844.91;;;6.21;100.00
28181;BME280;15464;50.988;10.318;2023-04-21T02:51:18;98833.94;;;6.14;100.00
28181;BME280;15464;50.988;10.318;2023-04-21T02:53:45;98835.72;;;6.14;100.00
28181;BME280;15464;50.988;10.318;2023-04-21T02:56:11;98832.47;;;6.10;100.00
28181;BME280;15464;50.988;10.318;2023-04-21T02:58:38;98830.88;;;6.07;100.00
28181;BME280;15464;50.988;10.318;2023-04-21T03:01:05;98831.72;;;6.08;100.00
28181;BME280;15464;50.988;10.318;2023-04-21T03:03:32;98830.78;;;6.09;100.00
28181;BME280;15464;50.988;10.318;2023-04-21T03:06:00;98829.34;;;6.05;100.00
28181;BME280;15464;50.988;10.318;2023-04-21T03:08:28;98824.69;;;6.08;100.00
28181;BME280;15464;50.988;10.318;2023-04-21T03:10:55;98831.72;;;6.08;100.00
28181;BME280;15464;50.988;10.318;2023-04-21T03:13:22;98829.19;;;6.06;100.00
28181;BME280;15464;50.988;10.318;2023-04-21T03:15:50;98832.91;;;6.04;100.00
28181;BME280;15464;50.988;10.318;2023-04-21T03:18:16;98828.91;;;5.98;100.00
28181;BME280;15464;50.988;10.318;2023-04-21T03:20:43;98830.78;;;5.96;100.00
28181;BME280;15464;50.988;10.318;2023-04-21T03:23:10;98823.75;;;5.97;100.00
28181;BME280;15464;50.988;10.318;2023-04-21T03:25:37;98824.50;;;5.99;100.00
28181;BME280;15464;50.988;10.318;2023-04-21T03:28:04;98826.91;;;6.02;100.00
28181;BME280;15464;50.988;10.318;2023-04-21T03:30:31;98833.31;;;5.98;100.00
28181;BME280;15464;50.988;10.318;2023-04-21T03:32:58;98828.69;;;6.01;100.00
28181;BME280;15464;50.988;10.318;2023-04-21T03:35:25;98834.69;;;5.91;100.00
28181;BME280;15464;50.988;10.318;2023-04-21T03:37:52;98831.84;;;5.94;100.00
28181;BME280;15464;50.988;10.318;2023-04-21T03:40:19;98828.91;;;5.98;100.00
28181;BME280;15464;50.988;10.318;2023-04-21T03:42:45;98829.53;;;6.02;100.00
28181;BME280;15464;50.988;10.318;2023-04-21T03:45:12;98828.91;;;5.98;100.00
28181;BME280;15464;50.988;10.318;2023-04-21T03:47:39;98823.00;;;5.95;100.00
28181;BME280;15464;50.988;10.318;2023-04-21T03:50:06;98831.00;;;5.93;100.00
28181;BME280;15464;50.988;10.318;2023-04-21T03:52:33;98826.56;;;5.94;100.00
28181;BME280;15464;50.988;10.318;2023-04-21T03:54:59;98828.06;;;5.98;100.00
28181;BME280;15464;50.988;10.318;2023-04-21T03:57:26;98822.56;;;6.01;100.00
28181;BME280;15464;50.988;10.318;2023-04-21T03:59:53;98822.56;;;6.01;100.00
28181;BME280;15464;50.988;10.318;2023-04-21T04:02:20;98823.50;;;6.00;100.00
28181;BME280;15464;50.988;10.318;2023-04-21T04:04:47;98831.41;;;6.00;100.00
28181;BME280;15464;50.988;10.318;2023-04-21T04:07:14;98834.03;;;6.00;100.00
28181;BME280;15464;50.988;10.318;2023-04-21T04:09:43;98832.16;;;6.02;100.00
28181;BME280;15464;50.988;10.318;2023-04-21T04:12:10;98826.78;;;6.03;100.00
28181;BME280;15464;50.988;10.318;2023-04-21T04:14:37;98826.16;;;6.00;100.00
28181;BME280;15464;50.988;10.318;2023-04-21T04:17:04;98830.38;;;6.02;100.00
28181;BME280;15464;50.988;10.318;2023-04-21T04:19:31;98823.50;;;6.00;100.00
28181;BME280;15464;50.988;10.318;2023-04-21T04:21:59;98823.66;;;5.98;100.00
28181;BME280;15464;50.988;10.318;2023-04-21T04:24:26;98828.06;;;5.98;100.00
28181;BME280;15464;50.988;10.318;2023-04-21T04:26:53;98829.19;;;5.94;100.00
28181;BME280;15464;50.988;10.318;2023-04-21T04:29:23;98830.38;;;5.90;100.00
28181;BME280;15464;50.988;10.318;2023-04-21T04:31:50;98831.41;;;5.87;100.00
28181;BME280;15464;50.988;10.318;2023-04-21T04:34:17;98828.47;;;5.92;100.00
28181;BME280;15464;50.988;10.318;2023-04-21T04:36:45;98820.97;;;5.86;100.00
28181;BME280;15464;50.988;10.318;2023-04-21T04:39:14;98836.06;;;5.96;100.00
28181;BME280;15464;50.988;10.318;2023-04-21T04:41:41;98827.22;;;5.97;100.00
28181;BME280;15464;50.988;10.318;2023-04-21T04:44:08;98831.00;;;5.93;100.00
28181;BME280;15464;50.988;10.318;2023-04-21T04:46:36;98824.16;;;5.91;100.00
28181;BME280;15464;50.988;10.318;2023-04-21T04:49:04;98831.84;;;5.94;100.00
28181;BME280;15464;50.988;10.318;2023-04-21T04:51:31;98835.63;;;5.90;100.00
28181;BME280;15464;50.988;10.318;2023-04-21T04:53:58;98837.50;;;5.88;100.00
28181;BME280;15464;50.988;10.318;2023-04-21T04:56:24;98846.34;;;5.87;100.00
28181;BME280;15464;50.988;10.318;2023-04-21T04:58:51;98846.53;;;5.84;100.00
28181;BME280;15464;50.988;10.318;2023-04-21T05:01:18;98836.84;;;5.84;100.00
28181;BME280;15464;50.988;10.318;2023-04-21T05:03:45;98844.66;;;5.86;100.00
28181;BME280;15464;50.988;10.318;2023-04-21T05:06:12;98847.00;;;5.90;100.00
28181;BME280;15464;50.988;10.318;2023-04-21T05:08:39;98856.03;;;5.86;100.00
28181;BME280;15464;50.988;10.318;2023-04-21T05:11:09;98855.19;;;5.86;100.00
28181;BME280;15464;50.988;10.318;2023-04-21T05:13:35;98857.06;;;5.84;100.00
28181;BME280;15464;50.988;10.318;2023-04-21T05:16:05;98859.50;;;5.87;100.00
28181;BME280;15464;50.988;10.318;2023-04-21T05:18:32;98860.44;;;5.86;100.00
28181;BME280;15464;50.988;10.318;2023-04-21T05:20:59;98867.75;;;5.95;100.00
28181;BME280;15464;50.988;10.318;2023-04-21T05:23:26;98853.53;;;5.97;100.00
28181;BME280;15464;50.988;10.318;2023-04-21T05:25:53;98855.84;;;6.02;100.00
28181;BME280;15464;50.988;10.318;2023-04-21T05:28:19;98865.22;;;6.06;100.00
28181;BME280;15464;50.988;10.318;2023-04-21T05:30:46;98860.28;;;6.01;100.00
28181;BME280;15464;50.988;10.318;2023-04-21T05:33:13;98868.50;;;6.10;100.00
28181;BME280;15464;50.988;10.318;2023-04-21T05:35:39;98870.09;;;6.12;100.00
28181;BME280;15464;50.988;10.318;2023-04-21T05:38:06;98866.38;;;6.15;100.00
28181;BME280;15464;50.988;10.318;2023-04-21T05:40:33;98870.38;;;6.20;100.00
28181;BME280;15464;50.988;10.318;2023-04-21T05:43:00;98864.50;;;6.29;100.00
28181;BME280;15464;50.988;10.318;2023-04-21T05:45:26;98868.28;;;6.38;100.00
28181;BME280;15464;50.988;10.318;2023-04-21T05:47:53;98865.53;;;6.39;100.00
28181;BME280;15464;50.988;10.318;2023-04-21T05:50:20;98862.72;;;6.42;100.00
28181;BME280;15464;50.988;10.318;2023-04-21T05:52:46;98862.16;;;6.50;100.00
28181;BME280;15464;50.988;10.318;2023-04-21T05:55:13;98860.25;;;6.52;100.00
28181;BME280;15464;50.988;10.318;2023-04-21T05:57:39;98863.31;;;6.59;100.00
28181;BME280;15464;50.988;10.318;2023-04-21T06:00:07;98865.84;;;6.60;100.00
28181;BME280;15464;50.988;10.318;2023-04-21T06:02:34;98856.22;;;6.72;100.00
28181;BME280;15464;50.988;10.318;2023-04-21T06:05:01;98860.03;;;6.68;100.00
28181;BME280;15464;50.988;10.318;2023-04-21T06:07:28;98861.69;;;6.69;100.00
28181;BME280;15464;50.988;10.318;2023-04-21T06:09:54;98856.84;;;6.63;100.00
28181;BME280;15464;50.988;10.318;2023-04-21T06:12:23;98850.53;;;6.65;100.00
28181;BME280;15464;50.988;10.318;2023-04-21T06:14:50;98843.03;;;6.72;100.00
28181;BME280;15464;50.988;10.318;2023-04-21T06:17:17;98841.66;;;6.79;100.00
28181;BME280;15464;50.988;10.318;2023-04-21T06:19:44;98842.38;;;6.81;100.00
28181;BME280;15464;50.988;10.318;2023-04-21T06:22:11;98838.13;;;6.91;100.00
28181;BME280;15464;50.988;10.318;2023-04-21T06:24:37;98839.25;;;7.00;100.00
28181;BME280;15464;50.988;10.318;2023-04-21T06:27:09;98836.78;;;7.09;100.00
28181;BME280;15464;50.988;10.318;2023-04-21T06:29:36;98833.59;;;7.17;100.00
28181;BME280;15464;50.988;10.318;2023-04-21T06:32:03;98834.56;;;7.16;100.00
28181;BME280;15464;50.988;10.318;2023-04-21T06:34:30;98826.09;;;7.23;100.00
28181;BME280;15464;50.988;10.318;2023-04-21T06:36:57;98832.34;;;7.34;100.00
28181;BME280;15464;50.988;10.318;2023-04-21T06:39:23;98834.25;;;7.32;100.00
28181;BME280;15464;50.988;10.318;2023-04-21T06:41:50;98824.25;;;7.48;100.00
28181;BME280;15464;50.988;10.318;2023-04-21T06:44:17;98819.50;;;7.64;100.00
28181;BME280;15464;50.988;10.318;2023-04-21T06:46:44;98825.81;;;7.85;100.00
28181;BME280;15464;50.988;10.318;2023-04-21T06:49:12;98817.91;;;8.07;99.90
28181;BME280;15464;50.988;10.318;2023-04-21T06:51:39;98819.03;;;8.27;98.53
28181;BME280;15464;50.988;10.318;2023-04-21T06:54:06;98822.06;;;8.45;97.37
28181;BME280;15464;50.988;10.318;2023-04-21T06:56:33;98816.28;;;8.73;97.19
28181;BME280;15464;50.988;10.318;2023-04-21T06:58:59;98820.94;;;8.92;94.57
28181;BME280;15464;50.988;10.318;2023-04-21T07:01:26;98819.78;;;9.06;93.85
28181;BME280;15464;50.988;10.318;2023-04-21T07:03:53;98818.09;;;9.16;93.03
28181;BME280;15464;50.988;10.318;2023-04-21T07:06:20;98812.28;;;9.22;91.41
28181;BME280;15464;50.988;10.318;2023-04-21T07:08:47;98813.88;;;9.45;90.21
28181;BME280;15464;50.988;10.318;2023-04-21T07:11:13;98810.88;;;9.70;89.30
28181;BME280;15464;50.988;10.318;2023-04-21T07:13:40;98805.81;;;9.88;87.96
28181;BME280;15464;50.988;10.318;2023-04-21T07:16:07;98803.56;;;10.04;87.89
28181;BME280;15464;50.988;10.318;2023-04-21T07:18:33;98807.19;;;10.24;85.70
28181;BME280;15464;50.988;10.318;2023-04-21T07:21:00;98813.19;;;10.26;85.52
28181;BME280;15464;50.988;10.318;2023-04-21T07:23:27;98809.03;;;10.12;85.35
28181;BME280;15464;50.988;10.318;2023-04-21T07:25:54;98807.06;;;10.05;84.78
28181;BME280;15464;50.988;10.318;2023-04-21T07:28:20;98804.22;;;9.97;85.44
28181;BME280;15464;50.988;10.318;2023-04-21T07:30:47;98811.06;;;10.20;84.88
28181;BME280;15464;50.988;10.318;2023-04-21T07:33:14;98807.25;;;10.43;84.21
28181;BME280;15464;50.988;10.318;2023-04-21T07:35:40;98807.94;;;10.76;84.95
28181;BME280;15464;50.988;10.318;2023-04-21T07:38:07;98815.06;;;10.75;82.80
28181;BME280;15464;50.988;10.318;2023-04-21T07:40:34;98809.13;;;11.02;82.44
28181;BME280;15464;50.988;10.318;2023-04-21T07:43:01;98803.81;;;11.02;80.48
28181;BME280;15464;50.988;10.318;2023-04-21T07:45:28;98808.44;;;11.10;80.21
28181;BME280;15464;50.988;10.318;2023-04-21T07:47:54;98805.09;;;11.27;80.80
28181;BME280;15464;50.988;10.318;2023-04-21T07:50:21;98802.88;;;11.61;81.64
28181;BME280;15464;50.988;10.318;2023-04-21T07:52:48;98808.75;;;11.55;79.23
28181;BME280;15464;50.988;10.318;2023-04-21T07:55:15;98807.75;;;11.56;80.22
28181;BME280;15464;50.988;10.318;2023-04-21T07:57:41;98803.84;;;11.41;80.19
28181;BME280;15464;50.988;10.318;2023-04-21T08:00:09;98809.16;;;11.41;80.14
28181;BME280;15464;50.988;10.318;2023-04-21T08:02:36;98804.69;;;11.51;79.58
28181;BME280;15464;50.988;10.318;2023-04-21T08:05:03;98803.31;;;11.85;78.57
28181;BME280;15464;50.988;10.318;2023-04-21T08:07:30;98802.97;;;12.07;77.42
28181;BME280;15464;50.988;10.318;2023-04-21T08:09:57;98808.16;;;11.99;77.40
28181;BME280;15464;50.988;10.318;2023-04-21T08:12:24;98811.66;;;12.09;76.49
28181;BME280;15464;50.988;10.318;2023-04-21T08:14:51;98807.84;;;12.22;76.53
28181;BME280;15464;50.988;10.318;2023-04-21T08:17:18;98802.38;;;12.23;76.65
28181;BME280;15464;50.988;10.318;2023-04-21T08:20:03;98796.88;;;12.25;76.71
28181;BME280;15464;50.988;10.318;2023-04-21T08:22:29;98796.09;;;12.51;77.33
28181;BME280;15464;50.988;10.318;2023-04-21T08:24:56;98794.91;;;12.64;75.24
28181;BME280;15464;50.988;10.318;2023-04-21T08:27:23;98790.84;;;12.32;74.81
28181;BME280;15464;50.988;10.318;2023-04-21T08:29:50;98790.75;;;12.24;75.34
28181;BME280;15464;50.988;10.318;2023-04-21T08:32:16;98800.13;;;12.19;76.18
28181;BME280;15464;50.988;10.318;2023-04-21T08:34:49;98795.91;;;12.26;76.66
28181;BME280;15464;50.988;10.318;2023-04-21T08:37:17;98794.16;;;12.07;75.95
28181;BME280;15464;50.988;10.318;2023-04-21T08:39:45;98786.47;;;12.04;76.50
28181;BME280;15464;50.988;10.318;2023-04-21T08:42:12;98783.91;;;12.22;76.70
28181;BME280;15464;50.988;10.318;2023-04-21T08:44:40;98789.16;;;12.31;75.56
28181;BME280;15464;50.988;10.318;2023-04-21T08:47:09;98786.50;;;12.41;75.30
28181;BME280;15464;50.988;10.318;2023-04-21T08:49:40;98786.09;;;12.36;74.45
28181;BME280;15464;50.988;10.318;2023-04-21T08:52:08;98786.69;;;12.30;73.88
28181;BME280;15464;50.988;10.318;2023-04-21T08:54:34;98792.59;;;12.14;74.57
28181;BME280;15464;50.988;10.318;2023-04-21T08:57:01;98795.78;;;12.27;74.27
28181;BME280;15464;50.988;10.318;2023-04-21T08:59:40;98799.28;;;12.28;73.95
28181;BME280;15464;50.988;10.318;2023-04-21T09:02:20;98790.84;;;12.42;74.79
28181;BME280;15464;50.988;10.318;2023-04-21T09:04:49;98796.44;;;12.39;74.02
28181;BME280;15464;50.988;10.318;2023-04-21T09:07:38;98793.50;;;12.42;74.70
28181;BME280;15464;50.988;10.318;2023-04-21T09:10:05;98793.91;;;12.37;73.70
28181;BME280;15464;50.988;10.318;2023-04-21T09:12:32;98783.94;;;12.49;74.45
28181;BME280;15464;50.988;10.318;2023-04-21T09:15:03;98775.66;;;12.52;73.70
28181;BME280;15464;50.988;10.318;2023-04-21T09:17:31;98773.69;;;12.54;74.70
28181;BME280;15464;50.988;10.318;2023-04-21T09:20:12;98770.47;;;12.78;74.01
28181;BME280;15464;50.988;10.318;2023-04-21T09:22:40;98764.31;;;12.77;72.95
28181;BME280;15464;50.988;10.318;2023-04-21T09:25:06;98758.38;;;12.83;73.03
28181;BME280;15464;50.988;10.318;2023-04-21T09:27:36;98762.19;;;12.81;72.34
28181;BME280;15464;50.988;10.318;2023-04-21T09:30:05;98751.47;;;12.90;73.63
28181;BME280;15464;50.988;10.318;2023-04-21T09:32:39;98745.09;;;13.01;72.75
28181;BME280;15464;50.988;10.318;2023-04-21T09:35:12;98750.66;;;13.08;73.77
28181;BME280;15464;50.988;10.318;2023-04-21T09:37:39;98753.91;;;13.29;73.27
28181;BME280;15464;50.988;10.318;2023-04-21T09:40:12;98751.00;;;13.40;72.38
28181;BME280;15464;50.988;10.318;2023-04-21T09:42:40;98754.31;;;13.60;72.56
28181;BME280;15464;50.988;10.318;2023-04-21T09:45:10;98746.81;;;13.81;70.11
28181;BME280;15464;50.988;10.318;2023-04-21T09:47:40;98747.03;;;13.88;69.13
28181;BME280;15464;50.988;10.318;2023-04-21T09:50:11;98750.72;;;13.95;69.18
28181;BME280;15464;50.988;10.318;2023-04-21T09:52:38;98741.75;;;13.96;71.38
28181;BME280;15464;50.988;10.318;2023-04-21T09:55:12;98737.97;;;14.06;69.37
28181;BME280;15464;50.988;10.318;2023-04-21T09:57:40;98740.00;;;14.12;68.63
28181;BME280;15464;50.988;10.318;2023-04-21T10:00:08;98745.53;;;14.11;69.91
28181;BME280;15464;50.988;10.318;2023-04-21T10:02:50;98736.25;;;14.23;68.18
28181;BME280;15464;50.988;10.318;2023-04-21T10:05:19;98732.34;;;14.43;68.11
28181;BME280;15464;50.988;10.318;2023-04-21T10:07:46;98721.88;;;14.50;66.03
28181;BME280;15464;50.988;10.318;2023-04-21T10:10:19;98727.75;;;14.62;65.19
28181;BME280;15464;50.988;10.318;2023-04-21T10:12:49;98717.41;;;14.59;65.01
28181;BME280;15464;50.988;10.318;2023-04-21T10:15:33;98728.28;;;14.65;65.28
28181;BME280;15464;50.988;10.318;2023-04-21T10:18:30;98720.03;;;14.50;65.35
28181;BME280;15464;50.988;10.318;2023-04-21T10:23:40;98713.03;;;14.49;66.63
28181;BME280;15464;50.988;10.318;2023-04-21T10:26:08;98713.03;;;14.49;66.04
28181;BME280;15464;50.988;10.318;2023-04-21T10:39:32;98708.09;;;14.71;67.72
28181;BME280;15464;50.988;10.318;2023-04-21T10:47:27;98703.13;;;14.84;65.43
28181;BME280;15464;50.988;10.318;2023-04-21T10:49:57;98697.31;;;15.05;66.75
28181;BME280;15464;50.988;10.318;2023-04-21T10:52:33;98699.50;;;15.17;63.05
28181;BME280;15464;50.988;10.318;2023-04-21T10:57:30;98688.00;;;15.41;63.18
28181;BME280;15464;50.988;10.318;2023-04-21T10:59:58;98676.09;;;15.68;63.58
28181;BME280;15464;50.988;10.318;2023-04-21T11:02:25;98685.59;;;15.87;64.16
28181;BME280;15464;50.988;10.318;2023-04-21T11:04:53;98679.09;;;15.89;63.15
28181;BME280;15464;50.988;10.318;2023-04-21T11:07:23;98671.59;;;15.68;62.77
28181;BME280;15464;50.988;10.318;2023-04-21T11:12:34;98668.00;;;16.08;63.01
28181;BME280;15464;50.988;10.318;2023-04-21T11:15:07;98668.59;;;16.27;62.95
28181;BME280;15464;50.988;10.318;2023-04-21T11:17:36;98669.56;;;16.34;61.27
28181;BME280;15464;50.988;10.318;2023-04-21T11:20:05;98664.91;;;16.28;60.12
28181;BME280;15464;50.988;10.318;2023-04-21T11:22:32;98663.75;;;16.22;61.11
28181;BME280;15464;50.988;10.318;2023-04-21T11:24:59;98653.03;;;16.30;60.21
28181;BME280;15464;50.988;10.318;2023-04-21T11:27:27;98665.22;;;16.33;58.69
28181;BME280;15464;50.988;10.318;2023-04-21T11:29:55;98661.16;;;16.45;57.90
28181;BME280;15464;50.988;10.318;2023-04-21T11:32:23;98644.97;;;16.69;57.54
28181;BME280;15464;50.988;10.318;2023-04-21T11:34:50;98635.19;;;16.84;57.16
28181;BME280;15464;50.988;10.318;2023-04-21T11:37:23;98644.47;;;16.97;55.72
28181;BME280;15464;50.988;10.318;2023-04-21T11:39:56;98637.22;;;17.20;55.67
28181;BME280;15464;50.988;10.318;2023-04-21T11:42:26;98632.75;;;17.12;56.62
28181;BME280;15464;50.988;10.318;2023-04-21T11:44:54;98627.63;;;17.25;55.96
28181;BME280;15464;50.988;10.318;2023-04-21T11:47:24;98619.78;;;17.24;56.31
28181;BME280;15464;50.988;10.318;2023-04-21T11:50:00;98623.09;;;17.49;54.90
28181;BME280;15464;50.988;10.318;2023-04-21T11:52:31;98619.59;;;17.63;53.86
28181;BME280;15464;50.988;10.318;2023-04-21T11:57:28;98619.69;;;17.32;53.63
28181;BME280;15464;50.988;10.318;2023-04-21T12:00:04;98619.88;;;17.83;55.33
28181;BME280;15464;50.988;10.318;2023-04-21T12:02:37;98608.41;;;17.89;56.02
28181;BME280;15464;50.988;10.318;2023-04-21T12:05:05;98622.84;;;17.88;52.29
28181;BME280;15464;50.988;10.318;2023-04-21T12:07:34;98611.75;;;17.91;52.49
28181;BME280;15464;50.988;10.318;2023-04-21T12:10:07;98617.16;;;18.27;52.27
28181;BME280;15464;50.988;10.318;2023-04-21T12:12:36;98611.56;;;17.78;52.37
28181;BME280;15464;50.988;10.318;2023-04-21T12:15:07;98621.91;;;17.81;52.22
28181;BME280;15464;50.988;10.318;2023-04-21T12:17:48;98609.34;;;17.66;51.09
28181;BME280;15464;50.988;10.318;2023-04-21T12:20:27;98602.25;;;17.36;53.03
28181;BME280;15464;50.988;10.318;2023-04-21T12:22:54;98613.41;;;17.25;53.56
28181;BME280;15464;50.988;10.318;2023-04-21T12:25:21;98609.75;;;17.18;54.50
28181;BME280;15464;50.988;10.318;2023-04-21T12:27:56;98600.78;;;17.48;53.47
28181;BME280;15464;50.988;10.318;2023-04-21T12:30:23;98599.06;;;17.99;51.95
28181;BME280;15464;50.988;10.318;2023-04-21T12:32:49;98594.91;;;17.82;51.79
28181;BME280;15464;50.988;10.318;2023-04-21T12:35:17;98602.50;;;17.79;51.32
28181;BME280;15464;50.988;10.318;2023-04-21T12:37:44;98589.53;;;17.97;51.90
28181;BME280;15464;50.988;10.318;2023-04-21T12:40:11;98593.63;;;17.78;51.20
28181;BME280;15464;50.988;10.318;2023-04-21T12:42:37;98589.13;;;18.29;50.54
28181;BME280;15464;50.988;10.318;2023-04-21T12:45:05;98582.03;;;18.58;50.28
28181;BME280;15464;50.988;10.318;2023-04-21T12:47:32;98569.88;;;18.62;48.91
28181;BME280;15464;50.988;10.318;2023-04-21T12:49:59;98570.34;;;18.50;49.54
28181;BME280;15464;50.988;10.318;2023-04-21T12:52:26;98574.28;;;18.33;48.98
28181;BME280;15464;50.988;10.318;2023-04-21T12:54:53;98568.75;;;18.20;48.30
28181;BME280;15464;50.988;10.318;2023-04-21T12:57:20;98573.38;;;18.62;48.47
28181;BME280;15464;50.988;10.318;2023-04-21T12:59:47;98575.69;;;18.86;46.39
28181;BME280;15464;50.988;10.318;2023-04-21T13:02:14;98567.72;;;18.72;46.32
28181;BME280;15464;50.988;10.318;2023-04-21T13:04:41;98569.13;;;18.89;45.57
28181;BME280;15464;50.988;10.318;2023-04-21T13:07:08;98555.22;;;18.64;46.46
28181;BME280;15464;50.988;10.318;2023-04-21T13:09:35;98549.88;;;19.13;46.54
28181;BME280;15464;50.988;10.318;2023-04-21T13:12:01;98552.25;;;19.23;45.78
28181;BME280;15464;50.988;10.318;2023-04-21T13:14:28;98549.59;;;19.29;44.90
28181;BME280;15464;50.988;10.318;2023-04-21T13:16:55;98556.56;;;19.17;45.13
28181;BME280;15464;50.988;10.318;2023-04-21T13:19:22;98542.78;;;19.06;46.04
28181;BME280;15464;50.988;10.318;2023-04-21T13:21:50;98544.28;;;19.43;45.94